Time;durP1;ratioP1;P1;durP2;ratioP2;P2;SDS_P1;SDS_P2;PMS_P1;PMS_P2;Temp;Humidity;BMP_temperature;BMP_pressure;BME280_temperature;BME280_humidity;BME280_pressure;Samples;Min_cycle;Max_cycle;Signal;HPM_P1;HPM_P2
2023/01/03 00:01:20;;;;;;;2.47;2.28;;;16.40;59.90;;;;;;5145163;27;20049;-67
2023/01/03 00:03:46;;;;;;;2.50;2.03;;;16.30;59.70;;;;;;5145098;27;20019;-69
2023/01/03 00:06:23;;;;;;;2.55;2.28;;;16.30;59.80;;;;;;5145004;27;20026;-69
2023/01/03 00:08:49;;;;;;;2.13;1.90;;;16.20;59.90;;;;;;5145068;27;20064;-68
2023/01/03 00:11:18;;;;;;;3.20;2.35;;;16.20;60.10;;;;;;5145002;27;20038;-69
2023/01/03 00:13:44;;;;;;;2.92;2.30;;;16.20;60.20;;;;;;5144971;27;20019;-68
2023/01/03 00:16:18;;;;;;;2.38;2.17;;;16.10;60.30;;;;;;5144865;27;20273;-69
2023/01/03 00:18:44;;;;;;;2.53;2.33;;;16.00;60.40;;;;;;5144394;27;20380;-68
2023/01/03 00:21:11;;;;;;;2.40;2.03;;;16.00;60.60;;;;;;5144828;27;20046;-68
2023/01/03 00:23:37;;;;;;;2.63;2.42;;;16.00;60.60;;;;;;5144667;27;20060;-68
2023/01/03 00:26:11;;;;;;;2.40;2.20;;;15.90;60.70;;;;;;5144621;27;20253;-67
2023/01/03 00:28:38;;;;;;;2.35;2.15;;;15.90;60.80;;;;;;5144618;27;20046;-69
2023/01/03 00:31:09;;;;;;;3.28;2.50;;;15.80;60.90;;;;;;5144622;27;20023;-70
2023/01/03 00:33:37;;;;;;;2.60;2.05;;;15.80;61.00;;;;;;5144499;27;20026;-68
2023/01/03 00:36:05;;;;;;;2.40;1.92;;;15.80;61.70;;;;;;5144522;27;20015;-69
2023/01/03 00:38:31;;;;;;;3.67;2.83;;;15.80;61.10;;;;;;5144515;27;20330;-68
2023/01/03 00:41:08;;;;;;;2.70;2.20;;;15.70;61.10;;;;;;5144444;27;20046;-69
2023/01/03 00:43:34;;;;;;;2.83;2.20;;;15.70;61.20;;;;;;5144260;27;20015;-68
2023/01/03 00:46:00;;;;;;;2.65;2.25;;;15.70;61.20;;;;;;5144102;27;20039;-69
2023/01/03 00:48:27;;;;;;;2.13;1.92;;;15.70;61.30;;;;;;5144289;27;20031;-69
2023/01/03 00:50:53;;;;;;;3.10;2.63;;;15.60;61.20;;;;;;5144266;27;20015;-69
2023/01/03 00:53:20;;;;;;;2.30;2.10;;;15.60;61.90;;;;;;5144181;27;20037;-68
2023/01/03 00:55:46;;;;;;;2.55;1.95;;;15.70;61.30;;;;;;5144186;27;20027;-69
2023/01/03 00:58:12;;;;;;;2.20;2.00;;;15.80;61.30;;;;;;5144079;27;20315;-68
2023/01/03 01:00:38;;;;;;;2.35;2.10;;;15.90;61.20;;;;;;5143987;27;20034;-68
2023/01/03 01:03:05;;;;;;;2.10;1.80;;;16.00;61.00;;;;;;5143983;27;20019;-68
2023/01/03 01:05:33;;;;;;;2.35;2.08;;;16.10;61.40;;;;;;5143897;27;20027;-67
2023/01/03 01:07:59;;;;;;;2.88;2.53;;;16.20;60.50;;;;;;5143810;27;20051;-69
2023/01/03 01:10:25;;;;;;;2.45;2.25;;;16.20;60.80;;;;;;5143761;27;20058;-68
2023/01/03 01:12:55;;;;;;;2.45;1.88;;;16.30;60.00;;;;;;5143684;27;20414;-69
2023/01/03 01:15:24;;;;;;;2.47;2.28;;;16.30;59.90;;;;;;5143708;27;20090;-68
2023/01/03 01:17:49;;;;;;;2.08;1.80;;;16.20;59.70;;;;;;5143702;27;20033;-68
2023/01/03 01:20:16;;;;;;;2.30;2.10;;;16.20;59.80;;;;;;5143596;27;20053;-68
2023/01/03 01:22:42;;;;;;;2.58;2.20;;;16.10;59.80;;;;;;5143475;27;20046;-68
2023/01/03 01:25:08;;;;;;;2.15;1.95;;;16.10;60.00;;;;;;5143444;27;20064;-68
2023/01/03 01:27:34;;;;;;;2.63;2.42;;;16.10;60.20;;;;;;5143577;27;20229;-68
2023/01/03 01:29:59;;;;;;;2.45;2.15;;;16.00;60.40;;;;;;5142621;27;20321;-68
2023/01/03 01:32:25;;;;;;;2.63;2.17;;;15.90;60.40;;;;;;5143442;27;20042;-69
2023/01/03 01:34:51;;;;;;;2.92;2.30;;;15.90;60.60;;;;;;5143340;27;20343;-68
2023/01/03 01:37:17;;;;;;;2.78;2.22;;;15.80;60.60;;;;;;5143314;27;20019;-69
2023/01/03 01:39:43;;;;;;;2.50;2.30;;;15.80;60.70;;;;;;5143294;27;20045;-69
2023/01/03 01:44:58;;;;;;;2.65;2.15;;;15.70;60.80;;;;;;5143015;27;20049;-69
2023/01/03 01:47:58;;;;;;;2.83;2.27;;;15.70;61.00;;;;;;5143231;27;20063;-68
2023/01/03 01:50:42;;;;;;;2.13;1.92;;;15.70;61.60;;;;;;5143117;27;20026;-68
2023/01/03 01:53:15;;;;;;;3.00;2.35;;;15.70;61.10;;;;;;5143109;27;20207;-68
2023/01/03 01:56:12;;;;;;;2.17;1.98;;;15.70;61.10;;;;;;5143105;27;20091;-68
2023/01/03 01:58:41;;;;;;;2.17;1.98;;;15.70;61.10;;;;;;5143026;27;20031;-68
2023/01/03 02:01:10;;;;;;;2.45;2.25;;;15.70;61.20;;;;;;5142863;27;20027;-69
2023/01/03 02:03:36;;;;;;;2.55;2.35;;;15.70;61.20;;;;;;5142846;27;20041;-68
2023/01/03 02:06:06;;;;;;;2.47;2.20;;;15.70;61.20;;;;;;5142754;27;20083;-68
2023/01/03 02:08:35;;;;;;;2.45;2.20;;;15.70;61.30;;;;;;5142815;27;20323;-70
2023/01/03 02:11:07;;;;;;;;;;;15.70;61.40;;;;;;5143208;27;20046;-69
2023/01/03 02:13:51;;;;;;;2.42;2.22;;;15.60;61.30;;;;;;5142694;27;19918;-69
2023/01/03 02:16:52;;;;;;;2.88;2.10;;;15.60;61.30;;;;;;5142710;27;20085;-69
2023/01/03 02:19:54;;;;;;;2.25;2.05;;;15.60;61.30;;;;;;5039313;28;20025;-69
2023/01/03 02:22:41;;;;;;;3.00;2.15;;;15.70;61.30;;;;;;5142567;27;20054;-68
2023/01/03 02:25:32;;;;;;;2.50;1.98;;;15.80;61.20;;;;;;5142527;27;20030;-68
2023/01/03 02:28:26;;;;;;;2.40;2.10;;;16.00;61.10;;;;;;5142510;27;20015;-69
2023/01/03 02:30:57;;;;;;;3.45;2.30;;;16.10;60.70;;;;;;5142434;27;20254;-67
2023/01/03 02:33:40;;;;;;;2.25;1.88;;;16.20;60.50;;;;;;5142366;27;20043;-69
2023/01/03 02:36:28;;;;;;;2.10;1.90;;;16.20;60.20;;;;;;5142365;27;20023;-67
2023/01/03 02:39:15;;;;;;;2.75;2.28;;;16.30;60.00;;;;;;5142367;27;20034;-69
2023/01/03 02:41:44;;;;;;;2.22;1.90;;;16.30;59.90;;;;;;5142241;27;20019;-68
2023/01/03 02:44:25;;;;;;;2.45;2.22;;;16.30;59.80;;;;;;5142248;27;20031;-68
2023/01/03 02:47:00;;;;;;;2.50;2.30;;;16.20;59.90;;;;;;5142224;28;20031;-69
2023/01/03 02:49:33;;;;;;;2.53;2.33;;;16.20;60.00;;;;;;5142222;28;20019;-68
2023/01/03 02:52:11;;;;;;;2.58;2.38;;;16.10;60.10;;;;;;5141967;28;20011;-68
2023/01/03 02:54:45;;;;;;;2.40;2.10;;;16.00;60.30;;;;;;5142203;28;20019;-69
2023/01/03 02:57:29;;;;;;;2.55;2.35;;;16.00;60.50;;;;;;5142239;28;20051;-68
2023/01/03 03:00:21;;;;;;;2.60;2.30;;;15.90;60.70;;;;;;5142163;28;20023;-67
2023/01/03 03:02:52;;;;;;;2.20;1.88;;;15.90;60.80;;;;;;5142150;28;20027;-68
2023/01/03 03:05:29;;;;;;;2.28;1.95;;;15.80;60.80;;;;;;5142095;28;20030;-68
2023/01/03 03:07:55;;;;;;;2.63;2.22;;;15.80;60.90;;;;;;5142107;28;20023;-68
2023/01/03 03:13:36;;;;;;;2.50;2.17;;;15.70;61.10;;;;;;5142067;28;20017;-67
2023/01/03 03:16:46;;;;;;;2.83;2.28;;;15.70;61.10;;;;;;5142000;28;20329;-68
2023/01/03 03:25:05;;;;;;;3.22;2.40;;;15.60;61.30;;;;;;5141884;28;20025;-68
2023/01/03 03:30:20;;;;;;;2.55;2.10;;;15.60;61.40;;;;;;5141901;28;20068;-68
2023/01/03 03:32:49;;;;;;;1.95;1.83;;;15.60;61.40;;;;;;5141805;28;20016;-68
2023/01/03 03:35:18;;;;;;;2.50;2.28;;;15.60;61.40;;;;;;5141834;28;20031;-68
2023/01/03 03:37:47;;;;;;;2.58;2.28;;;15.70;61.30;;;;;;5141794;28;20050;-68
2023/01/03 03:46:20;;;;;;;2.78;2.50;;;16.20;60.50;;;;;;5141469;28;20230;-68
2023/01/03 03:51:48;;;;;;;2.95;2.28;;;16.30;60.00;;;;;;5141710;27;20026;-68
2023/01/03 03:54:20;;;;;;;1.88;1.73;;;16.30;59.90;;;;;;5145417;27;20015;-68
2023/01/03 03:56:52;;;;;;;2.38;2.17;;;16.20;59.90;;;;;;5145398;27;20072;-68
2023/01/03 03:59:21;;;;;;;2.30;2.10;;;16.20;60.00;;;;;;5145385;27;20007;-68
2023/01/03 04:01:50;;;;;;;2.30;2.10;;;16.10;60.10;;;;;;5145247;27;20018;-69
2023/01/03 04:04:23;;;;;;;2.38;1.90;;;16.10;60.20;;;;;;5145108;27;20016;-68
2023/01/03 04:06:50;;;;;;;3.35;2.35;;;16.00;60.40;;;;;;5145208;27;20042;-67
2023/01/03 04:09:17;;;;;;;2.10;1.90;;;16.00;60.50;;;;;;5145100;27;20014;-68
2023/01/03 04:11:42;;;;;;;2.67;2.40;;;15.90;60.60;;;;;;5145121;27;20203;-68
2023/01/03 04:14:08;;;;;;;3.00;2.33;;;15.90;60.80;;;;;;5145022;27;20041;-68
2023/01/03 04:16:36;;;;;;;2.55;2.25;;;15.80;60.80;;;;;;5144966;27;20257;-69
2023/01/03 04:19:03;;;;;;;2.45;2.20;;;15.80;61.00;;;;;;5144946;27;20082;-68
2023/01/03 04:21:28;;;;;;;2.75;2.45;;;15.80;61.00;;;;;;5144895;27;20019;-67
2023/01/03 04:23:54;;;;;;;2.60;2.28;;;15.70;61.00;;;;;;5144727;27;20023;-69
2023/01/03 04:26:20;;;;;;;2.05;1.85;;;15.70;61.10;;;;;;5144761;27;20031;-68
2023/01/03 04:28:46;;;;;;;2.40;2.20;;;15.70;61.20;;;;;;5144737;27;20030;-69
2023/01/03 04:31:12;;;;;;;2.33;2.00;;;15.70;61.20;;;;;;5144749;27;20337;-67
2023/01/03 04:33:38;;;;;;;3.05;2.35;;;15.60;61.20;;;;;;5144707;27;20078;-68
2023/01/03 04:36:04;;;;;;;2.55;2.35;;;15.60;61.30;;;;;;5144869;27;20311;-67
2023/01/03 04:38:30;;;;;;;3.38;2.53;;;15.60;61.40;;;;;;5144645;27;20034;-68
2023/01/03 04:41:01;;;;;;;2.28;2.08;;;15.60;61.40;;;;;;5144561;27;20082;-68
2023/01/03 04:46:11;;;;;;;2.15;1.88;;;15.60;61.50;;;;;;5144201;27;20058;-68
2023/01/03 04:48:37;;;;;;;2.30;2.10;;;15.60;61.40;;;;;;5144431;27;20039;-68
2023/01/03 04:51:03;;;;;;;2.50;1.80;;;15.70;61.30;;;;;;5144370;27;20019;-68
2023/01/03 04:53:29;;;;;;;2.30;2.03;;;15.80;61.20;;;;;;5144325;27;20021;-68
2023/01/03 04:55:58;;;;;;;2.88;2.25;;;15.90;61.00;;;;;;5144135;27;20027;-68
2023/01/03 04:58:24;;;;;;;2.35;2.13;;;16.10;60.70;;;;;;5144242;27;20015;-68
2023/01/03 05:00:50;;;;;;;1.88;1.67;;;16.20;60.50;;;;;;5144242;27;20286;-67
2023/01/03 05:03:16;;;;;;;1.90;1.70;;;16.20;60.20;;;;;;5144135;27;20414;-69
2023/01/03 05:05:42;;;;;;;2.78;2.10;;;16.20;60.00;;;;;;5144002;27;20086;-69
2023/01/03 05:08:10;;;;;;;1.92;1.73;;;16.30;60.00;;;;;;5144047;27;20015;-68
2023/01/03 05:10:40;;;;;;;2.03;1.83;;;16.30;59.90;;;;;;5144013;27;20302;-68
2023/01/03 05:13:07;;;;;;;2.40;2.20;;;16.20;59.80;;;;;;5143972;27;20030;-68
2023/01/03 05:15:38;;;;;;;2.10;1.90;;;16.20;59.90;;;;;;5143918;27;20030;-68
2023/01/03 05:18:04;;;;;;;2.40;2.20;;;16.10;60.00;;;;;;5143846;27;20015;-68
2023/01/03 05:26:08;;;;;;;2.10;1.90;;;16.00;60.40;;;;;;5143694;27;20199;-68
2023/01/03 05:28:34;;;;;;;2.63;2.15;;;15.90;60.60;;;;;;5143625;27;20023;-68
2023/01/03 05:31:00;;;;;;;1.98;1.77;;;15.80;60.70;;;;;;5143579;27;20303;-68
2023/01/03 05:33:27;;;;;;;2.17;1.90;;;15.80;60.80;;;;;;5143558;27;20030;-69
2023/01/03 05:35:53;;;;;;;2.30;2.10;;;15.80;60.90;;;;;;5143536;27;20045;-67
2023/01/03 05:38:19;;;;;;;2.28;2.08;;;15.70;61.00;;;;;;5143435;27;20023;-68
2023/01/03 05:40:44;;;;;;;2.33;2.13;;;15.70;61.00;;;;;;5143344;27;20039;-68
2023/01/03 05:43:10;;;;;;;2.30;2.00;;;15.70;61.10;;;;;;5143361;27;20402;-68
2023/01/03 05:45:37;;;;;;;2.33;2.13;;;15.70;61.10;;;;;;5143122;27;20042;-68
2023/01/03 05:48:04;;;;;;;1.92;1.73;;;15.70;61.20;;;;;;5143236;27;20030;-68
2023/01/03 05:50:30;;;;;;;2.20;2.00;;;15.70;61.20;;;;;;5143173;27;20011;-68
2023/01/03 05:52:56;;;;;;;2.28;2.08;;;15.70;61.20;;;;;;5143171;27;20025;-69
2023/01/03 05:55:22;;;;;;;1.90;1.70;;;15.70;61.30;;;;;;5143145;27;20050;-68
2023/01/03 05:57:48;;;;;;;2.30;2.10;;;15.70;61.20;;;;;;5124656;27;20354;-68
2023/01/03 06:00:14;;;;;;;2.97;2.55;;;15.70;61.20;;;;;;5143104;27;20054;-68
2023/01/03 06:02:40;;;;;;;1.80;1.70;;;15.60;61.20;;;;;;5124602;27;20022;-68
2023/01/03 06:05:07;;;;;;;2.63;2.17;;;15.60;61.30;;;;;;5142933;27;20050;-68
2023/01/03 06:07:35;;;;;;;1.85;1.60;;;15.60;61.30;;;;;;5142915;27;20023;-69
2023/01/03 06:10:01;;;;;;;2.42;2.17;;;15.60;61.40;;;;;;5142913;27;20022;-68
2023/01/03 06:12:27;;;;;;;2.42;1.80;;;15.60;61.30;;;;;;5142806;27;20023;-68
2023/01/03 06:14:53;;;;;;;2.22;2.03;;;15.70;61.30;;;;;;5142333;27;20034;-68
2023/01/03 06:20:04;;;;;;;2.15;1.85;;;15.90;60.90;;;;;;5142722;27;20444;-69
2023/01/03 06:22:30;;;;;;;1.98;1.67;;;16.00;60.70;;;;;;5142654;27;20192;-68
2023/01/03 06:24:55;;;;;;;2.17;1.90;;;16.10;60.40;;;;;;5142535;27;20022;-68
2023/01/03 06:27:21;;;;;;;2.22;2.03;;;16.20;60.30;;;;;;5142546;27;20056;-68
2023/01/03 06:29:47;;;;;;;2.33;2.03;;;16.20;60.10;;;;;;5142547;27;20019;-68
2023/01/03 06:32:13;;;;;;;1.92;1.83;;;16.30;59.90;;;;;;5142548;27;20023;-68
2023/01/03 06:34:39;;;;;;;1.83;1.65;;;16.30;59.90;;;;;;5142559;27;20023;-70
2023/01/03 06:37:04;;;;;;;2.17;1.92;;;16.20;59.80;;;;;;5142410;27;20057;-68
2023/01/03 06:39:32;;;;;;;2.05;1.85;;;16.20;59.90;;;;;;5142491;27;20245;-68
2023/01/03 06:42:38;;;;;;;2.13;1.92;;;16.10;60.00;;;;;;5142452;27;20027;-69
2023/01/03 06:53:10;;;;;;;2.00;1.80;;;16.10;60.30;;;;;;5142038;27;20073;-67
2023/01/03 06:53:16;;;;;;;2.25;1.90;;;15.90;60.60;;;;;;5142401;28;20251;-69
2023/01/03 06:55:45;;;;;;;1.90;1.77;;;15.90;60.80;;;;;;5142368;28;20031;-68
2023/01/03 06:58:12;;;;;;;2.78;2.10;;;15.80;60.90;;;;;;5142341;28;20029;-68
2023/01/03 07:00:42;;;;;;;2.17;1.98;;;15.80;60.90;;;;;;5142350;28;20297;-68
2023/01/03 07:03:08;;;;;;;2.13;1.92;;;15.70;61.00;;;;;;5142179;28;20334;-69
2023/01/03 07:05:34;;;;;;;2.10;1.60;;;15.70;61.10;;;;;;5142194;28;20050;-69
2023/01/03 07:07:59;;;;;;;2.13;1.90;;;15.70;61.20;;;;;;5142222;28;20086;-70
2023/01/03 07:10:26;;;;;;;2.60;1.95;;;15.60;61.10;;;;;;5142223;28;20023;-69
2023/01/03 07:15:36;;;;;;;2.33;2.13;;;15.60;61.30;;;;;;5142167;28;20014;-68
2023/01/03 07:18:01;;;;;;;2.10;1.88;;;15.60;61.30;;;;;;5142193;28;20215;-69
2023/01/03 07:20:27;;;;;;;2.40;2.00;;;15.60;61.30;;;;;;5142089;28;20019;-69
2023/01/03 07:22:53;;;;;;;1.67;1.55;;;15.60;61.40;;;;;;5142146;28;20046;-67
2023/01/03 07:25:19;;;;;;;1.73;1.60;;;15.60;61.40;;;;;;5141986;28;20031;-68
2023/01/03 07:27:55;;;;;;;2.08;1.88;;;15.60;61.30;;;;;;5143716;27;20053;-68
2023/01/03 07:30:22;;;;;;;1.77;1.60;;;15.80;61.30;;;;;;5146228;27;20211;-68
2023/01/03 07:32:48;;;;;;;1.92;1.75;;;15.90;61.10;;;;;;5146096;27;20035;-69
2023/01/03 07:35:14;;;;;;;2.28;2.08;;;16.00;60.70;;;;;;5145965;27;20253;-69
2023/01/03 07:37:39;;;;;;;2.30;2.10;;;16.10;60.60;;;;;;5145952;27;20027;-70
2023/01/03 07:40:06;;;;;;;1.77;1.67;;;16.20;60.30;;;;;;5145949;27;20038;-70
2023/01/03 07:45:16;;;;;;;2.10;1.90;;;16.30;59.90;;;;;;5145535;27;20066;-69
2023/01/03 07:47:45;;;;;;;2.10;1.90;;;16.30;59.90;;;;;;5145753;27;20326;-68
2023/01/03 07:50:12;;;;;;;2.42;1.98;;;16.20;59.90;;;;;;5145681;27;20087;-69
2023/01/03 07:52:38;;;;;;;2.03;1.90;;;16.20;60.00;;;;;;5145752;27;20023;-68
2023/01/03 07:55:04;;;;;;;1.90;1.73;;;16.20;60.00;;;;;;5145627;27;20019;-68
2023/01/03 07:57:30;;;;;;;2.15;1.95;;;16.10;60.20;;;;;;5145615;27;20082;-67
2023/01/03 07:59:55;;;;;;;2.05;1.85;;;16.00;60.20;;;;;;5145588;27;20215;-69
2023/01/03 08:02:21;;;;;;;2.22;1.70;;;16.00;60.40;;;;;;5145520;27;20031;-68
2023/01/03 08:04:47;;;;;;;2.22;1.80;;;16.00;60.60;;;;;;5145431;27;20019;-68
2023/01/03 08:07:13;;;;;;;1.83;1.73;;;15.90;60.60;;;;;;5145449;27;20019;-68
2023/01/03 08:15:07;;;;;;;2.42;2.22;;;15.80;60.90;;;;;;5145403;27;20087;-68
2023/01/03 08:17:33;;;;;;;2.10;1.90;;;15.80;61.00;;;;;;5145215;27;20314;-68
2023/01/03 08:19:59;;;;;;;2.55;2.25;;;15.70;61.00;;;;;;5145210;27;20036;-68
2023/01/03 08:22:26;;;;;;;2.13;1.92;;;15.70;61.10;;;;;;5145188;27;20057;-68
2023/01/03 08:24:52;;;;;;;2.25;2.05;;;15.70;61.10;;;;;;5145080;27;20023;-68
2023/01/03 08:27:17;;;;;;;2.17;1.77;;;15.70;61.10;;;;;;5145131;27;20356;-68
2023/01/03 08:29:45;;;;;;;2.03;1.80;;;15.70;61.20;;;;;;5145013;27;20022;-69
2023/01/03 08:32:11;;;;;;;1.80;1.70;;;15.60;61.20;;;;;;5145005;27;20068;-69
2023/01/03 08:34:40;;;;;;;2.15;1.95;;;15.60;61.20;;;;;;5144954;27;20019;-68
2023/01/03 08:37:09;;;;;;;2.17;1.98;;;15.60;61.30;;;;;;5144904;27;20015;-69
2023/01/03 08:39:46;;;;;;;2.28;2.08;;;15.60;61.30;;;;;;5144334;27;20346;-69
2023/01/03 08:42:14;;;;;;;2.22;1.80;;;15.70;61.20;;;;;;5144796;27;20038;-69
2023/01/03 08:44:43;;;;;;;2.20;1.90;;;15.80;61.10;;;;;;5144657;27;20195;-68
2023/01/03 08:47:10;;;;;;;2.08;1.60;;;15.90;61.00;;;;;;5144965;27;20258;-69
2023/01/03 08:49:38;;;;;;;1.92;1.58;;;16.00;60.80;;;;;;5144728;27;20079;-69
2023/01/03 08:52:04;;;;;;;2.42;2.13;;;16.10;60.60;;;;;;5144557;27;20016;-69
2023/01/03 08:54:30;;;;;;;1.90;1.70;;;16.20;60.30;;;;;;5144581;27;20022;-69
2023/01/03 08:56:56;;;;;;;1.73;1.63;;;16.20;60.00;;;;;;5144612;27;20049;-70
2023/01/03 08:59:21;;;;;;;1.92;1.60;;;16.30;59.80;;;;;;5144499;27;20545;-69
2023/01/03 09:01:47;;;;;;;2.25;1.83;;;16.30;59.70;;;;;;5144464;27;20083;-70
2023/01/03 09:04:13;;;;;;;2.13;1.92;;;16.30;59.60;;;;;;5144398;27;20030;-69
2023/01/03 09:06:39;;;;;;;1.85;1.75;;;16.30;59.50;;;;;;5144229;27;20046;-68
2023/01/03 09:09:06;;;;;;;1.58;1.48;;;16.30;59.60;;;;;;5144308;27;20039;-69
2023/01/03 09:11:32;;;;;;;2.28;1.77;;;16.20;59.70;;;;;;5144247;27;20411;-69
2023/01/03 09:13:59;;;;;;;1.85;1.70;;;16.20;59.80;;;;;;5144178;27;20019;-69
2023/01/03 09:16:25;;;;;;;2.30;1.85;;;16.10;59.90;;;;;;5144147;27;20038;-69
2023/01/03 09:18:51;;;;;;;1.95;1.83;;;16.10;60.00;;;;;;5144056;27;20023;-69
2023/01/03 09:21:17;;;;;;;2.08;1.88;;;16.00;60.20;;;;;;5143990;27;20103;-69
2023/01/03 09:23:43;;;;;;;1.70;1.60;;;16.00;60.20;;;;;;5143998;27;20031;-69
2023/01/03 09:26:09;;;;;;;1.88;1.67;;;16.00;60.30;;;;;;5143839;27;20082;-68
2023/01/03 09:28:35;;;;;;;2.17;1.73;;;15.90;60.40;;;;;;5143814;27;20015;-68
2023/01/03 09:31:01;;;;;;;1.67;1.33;;;15.90;60.40;;;;;;5143749;27;20015;-68
2023/01/03 09:33:27;;;;;;;2.95;2.00;;;15.90;61.10;;;;;;5143761;27;20023;-69
2023/01/03 09:35:54;;;;;;;2.28;1.80;;;15.90;60.50;;;;;;5143664;27;20027;-69
2023/01/03 09:38:21;;;;;;;2.00;1.80;;;15.90;60.60;;;;;;5143636;27;20015;-69
2023/01/03 09:40:55;;;;;;;2.10;1.92;;;15.80;60.60;;;;;;5143729;27;20034;-69
2023/01/03 09:43:24;;;;;;;2.00;1.63;;;15.80;60.70;;;;;;5143684;27;20019;-68
2023/01/03 09:45:53;;;;;;;1.92;1.73;;;15.80;60.70;;;;;;5143291;27;20346;-69
2023/01/03 09:48:32;;;;;;;2.45;2.10;;;15.80;60.70;;;;;;5143496;27;20048;-68
2023/01/03 09:50:59;;;;;;;1.90;1.80;;;15.80;60.70;;;;;;5124339;27;20084;-68
2023/01/03 10:05:11;;;;;;;1.77;1.63;;;15.80;60.70;;;;;;5143149;27;20034;-69
2023/01/03 10:08:04;;;;;;;2.10;1.90;;;15.80;60.80;;;;;;5143199;27;20023;-69
2023/01/03 10:10:45;;;;;;;2.15;1.85;;;15.80;60.60;;;;;;5143156;27;20043;-68
2023/01/03 10:13:30;;;;;;;2.08;1.90;;;15.90;61.20;;;;;;5143121;27;20083;-68
2023/01/03 10:16:08;;;;;;;2.20;1.85;;;16.00;60.40;;;;;;5143005;27;20019;-68
2023/01/03 10:18:59;;;;;;;2.20;2.00;;;16.10;60.20;;;;;;5143003;27;20030;-68
2023/01/03 10:21:39;;;;;;;1.60;1.48;;;16.30;60.00;;;;;;5143010;27;20026;-68
2023/01/03 10:24:21;;;;;;;2.03;1.63;;;16.40;60.40;;;;;;5142909;27;20022;-69
2023/01/03 10:26:54;;;;;;;1.90;1.70;;;16.40;59.50;;;;;;5142790;27;20022;-68
2023/01/03 10:29:20;;;;;;;1.75;1.65;;;16.50;59.30;;;;;;5142858;27;20017;-68
2023/01/03 10:32:07;;;;;;;2.13;1.80;;;16.50;59.30;;;;;;5142804;27;20019;-67
2023/01/03 10:34:33;;;;;;;2.10;1.90;;;16.60;59.20;;;;;;5142742;27;20068;-69
2023/01/03 10:37:18;;;;;;;1.65;1.50;;;16.70;59.10;;;;;;5142762;27;20022;-68
2023/01/03 10:39:44;;;;;;;1.80;1.55;;;16.80;58.90;;;;;;5142646;27;20364;-68
2023/01/03 10:42:17;;;;;;;1.92;1.65;;;16.90;58.70;;;;;;5142626;27;20075;-68
2023/01/03 10:44:59;;;;;;;1.65;1.55;;;17.00;58.50;;;;;;5142376;27;20068;-68
2023/01/03 10:47:26;;;;;;;1.98;1.65;;;17.00;58.40;;;;;;5142488;27;20221;-69
2023/01/03 10:50:03;;;;;;;2.20;2.00;;;17.10;58.40;;;;;;5142455;28;20015;-69
2023/01/03 10:52:37;;;;;;;2.13;1.85;;;17.10;58.30;;;;;;5142491;28;20019;-68
2023/01/03 10:55:14;;;;;;;1.70;1.48;;;17.20;58.30;;;;;;5142450;28;20023;-68
2023/01/03 10:57:42;;;;;;;2.20;2.00;;;17.30;58.20;;;;;;5142533;28;20027;-69
2023/01/03 11:00:35;;;;;;;2.50;1.90;;;17.30;58.10;;;;;;5142465;28;20011;-68
2023/01/03 11:03:15;;;;;;;2.00;1.80;;;17.40;58.10;;;;;;5128055;27;20035;-68
2023/01/03 11:06:05;;;;;;;2.13;1.85;;;17.40;57.80;;;;;;5146701;27;20023;-69
2023/01/03 11:08:37;;;;;;;1.90;1.80;;;17.40;57.90;;;;;;5133468;27;20345;-68
2023/01/03 11:11:03;;;;;;;1.95;1.70;;;17.40;57.90;;;;;;5146526;27;20023;-68
2023/01/03 11:13:40;;;;;;;2.03;1.67;;;17.50;58.10;;;;;;5146514;27;20042;-68
2023/01/03 11:16:18;;;;;;;2.10;1.90;;;17.50;58.00;;;;;;5146449;27;20295;-68
2023/01/03 11:19:04;;;;;;;2.17;1.52;;;17.60;57.90;;;;;;5146494;27;20015;-68
2023/01/03 11:21:45;;;;;;;2.25;1.85;;;17.60;57.90;;;;;;5146358;27;20045;-68
2023/01/03 11:24:38;;;;;;;2.67;1.92;;;17.70;57.80;;;;;;5146222;27;20026;-69
2023/01/03 11:27:38;;;;;;;2.10;1.90;;;17.70;57.80;;;;;;5146291;27;20590;-68
2023/01/03 11:30:42;;;;;;;1.80;1.70;;;17.70;57.80;;;;;;5146204;27;20019;-68
2023/01/03 11:34:06;;;;;;;1.63;1.50;;;17.70;57.70;;;;;;5146200;27;20060;-69
2023/01/03 11:36:36;;;;;;;2.10;1.90;;;17.70;57.80;;;;;;5042524;28;20041;-68
2023/01/03 11:39:29;;;;;;;2.67;2.00;;;17.80;57.80;;;;;;5127805;27;20023;-68
2023/01/03 11:42:46;;;;;;;1.98;1.55;;;17.80;57.60;;;;;;5145960;27;20023;-68
2023/01/03 11:45:32;;;;;;;1.65;1.55;;;17.90;57.60;;;;;;5042190;28;20049;-68
2023/01/03 11:48:27;;;;;;;2.67;1.85;;;17.80;57.60;;;;;;5042541;28;20017;-68
2023/01/03 11:51:05;;;;;;;2.13;1.73;;;17.90;57.60;;;;;;5133968;27;20057;-68
2023/01/03 11:53:47;;;;;;;2.08;1.88;;;17.90;57.70;;;;;;5145864;27;20043;-69
2023/01/03 11:56:28;;;;;;;1.58;1.48;;;17.90;57.70;;;;;;5145773;27;20086;-68
2023/01/03 11:59:13;;;;;;;2.00;1.55;;;17.90;57.50;;;;;;5145699;27;20015;-68
2023/01/03 12:02:02;;;;;;;2.22;1.70;;;18.00;57.60;;;;;;5145746;27;20086;-68
2023/01/03 12:04:40;;;;;;;1.90;1.73;;;18.10;57.50;;;;;;5131915;27;20027;-68
2023/01/03 12:07:37;;;;;;;3.75;2.10;;;18.10;57.40;;;;;;5145567;27;20063;-69
2023/01/03 12:10:09;;;;;;;2.03;1.75;;;18.00;57.40;;;;;;5145395;27;20244;-68
2023/01/03 12:13:13;;;;;;;1.65;1.55;;;18.10;57.50;;;;;;5144951;27;20042;-69
2023/01/03 12:15:52;;;;;;;1.88;1.75;;;18.10;57.50;;;;;;5145334;27;20334;-67
2023/01/03 12:18:50;;;;;;;1.33;1.23;;;18.20;57.50;;;;;;5145327;27;20043;-69
2023/01/03 12:21:36;;;;;;;2.28;1.90;;;18.20;57.40;;;;;;5103653;27;20050;-69
2023/01/03 12:24:27;;;;;;;2.33;1.88;;;18.20;57.30;;;;;;5145189;27;20041;-68
2023/01/03 12:27:24;;;;;;;59.15;10.63;;;18.30;57.20;;;;;;5145085;27;20015;-69
2023/01/03 12:29:53;;;;;;;25.48;6.88;;;17.90;53.70;;;;;;5145064;27;20011;-69
2023/01/03 12:32:43;;;;;;;5.60;2.70;;;17.30;56.70;;;;;;5145066;27;20033;-70
2023/01/03 12:35:27;;;;;;;5.30;3.55;;;17.60;57.90;;;;;;5144366;27;20407;-68
2023/01/03 12:37:55;;;;;;;8.32;3.42;;;17.80;58.00;;;;;;5144925;27;20019;-68
2023/01/03 12:40:49;;;;;;;4.30;2.85;;;18.00;57.70;;;;;;5144838;27;20056;-68
2023/01/03 12:43:52;;;;;;;7.50;2.80;;;18.00;57.70;;;;;;5098806;27;20105;-69
2023/01/03 12:46:31;;;;;;;8.63;3.63;;;18.10;57.80;;;;;;5144620;27;20084;-68
2023/01/03 12:49:04;;;;;;;7.47;3.00;;;18.00;57.90;;;;;;5144734;27;20432;-69
2023/01/03 12:51:30;;;;;;;5.35;3.03;;;18.00;58.10;;;;;;5126282;27;20281;-68
2023/01/03 12:54:24;;;;;;;7.05;3.22;;;18.10;58.20;;;;;;5144642;27;20015;-69
2023/01/03 12:57:12;;;;;;;5.95;3.10;;;18.10;58.10;;;;;;5144479;27;20015;-69
2023/01/03 13:00:00;;;;;;;8.93;3.20;;;18.10;58.00;;;;;;5144594;27;20038;-69
2023/01/03 13:02:34;;;;;;;3.15;2.22;;;18.20;58.10;;;;;;5144434;27;20447;-69
2023/01/03 13:05:23;;;;;;;10.13;4.13;;;18.20;58.00;;;;;;5144355;27;20087;-70
2023/01/03 13:08:27;;;;;;;5.05;2.47;;;18.30;58.00;;;;;;5130913;27;20047;-68
2023/01/03 13:10:56;;;;;;;7.93;3.00;;;18.20;58.20;;;;;;5144324;27;20046;-71
2023/01/03 13:13:22;;;;;;;56.30;9.25;;;18.20;57.80;;;;;;5144162;27;20019;-68
2023/01/03 13:15:48;;;;;;;53.30;7.90;;;18.50;56.80;;;;;;5144181;27;20026;-68
2023/01/03 13:18:37;;;;;;;29.95;5.10;;;18.80;56.50;;;;;;5144219;27;20026;-68
2023/01/03 13:21:48;;;;;;;51.85;5.70;;;18.80;57.00;;;;;;5143774;27;20084;-68
2023/01/03 13:24:41;;;;;;;34.60;5.60;;;18.90;56.80;;;;;;5143659;27;20034;-65
2023/01/03 13:27:37;;;;;;;34.40;5.55;;;18.90;56.80;;;;;;5143934;27;20358;-65
2023/01/03 13:30:18;;;;;;;32.30;5.07;;;18.90;56.90;;;;;;5143873;27;20027;-65
2023/01/03 13:33:09;;;;;;;46.45;7.45;;;18.90;56.90;;;;;;5143836;27;20015;-66
2023/01/03 13:35:56;;;;;;;24.92;4.75;;;18.90;56.90;;;;;;5125785;27;20035;-66
2023/01/03 13:38:29;;;;;;;25.75;5.38;;;18.90;57.60;;;;;;5143001;27;20034;-66
2023/01/03 13:40:58;;;;;;;44.80;6.85;;;18.90;56.90;;;;;;5143382;27;20019;-67
2023/01/03 13:43:33;;;;;;;33.10;5.13;;;18.90;56.90;;;;;;5143362;27;20029;-67
2023/01/03 13:46:06;;;;;;;49.88;6.25;;;18.90;57.10;;;;;;5143105;27;20070;-68
2023/01/03 13:48:38;;;;;;;57.63;9.68;;;18.90;57.30;;;;;;5143318;27;20019;-68
2023/01/03 13:51:13;;;;;;;40.03;6.65;;;18.80;57.60;;;;;;5143325;27;20079;-68
2023/01/03 13:53:51;;;;;;;42.55;6.25;;;18.80;57.30;;;;;;5143202;27;20023;-67
2023/01/03 13:56:22;;;;;;;44.83;6.68;;;18.80;57.50;;;;;;5143312;27;20027;-67
2023/01/03 13:59:17;;;;;;;39.17;6.47;;;18.90;57.50;;;;;;5143149;27;20146;-67
2023/01/03 14:02:14;;;;;;;54.65;7.22;;;18.90;57.20;;;;;;5143143;27;20034;-68
2023/01/03 14:05:01;;;;;;;48.65;8.00;;;18.90;57.20;;;;;;5143050;27;20210;-68
2023/01/03 14:07:58;;;;;;;52.22;7.40;;;18.90;57.40;;;;;;5143039;27;20007;-68
2023/01/03 14:10:46;;;;;;;61.88;7.68;;;18.90;57.40;;;;;;5143007;27;20019;-69
2023/01/03 14:13:38;;;;;;;71.70;9.88;;;18.90;57.60;;;;;;5142923;27;20038;-68
2023/01/03 14:16:13;;;;;;;50.47;7.80;;;19.00;57.50;;;;;;5142722;27;20022;-70
2023/01/03 14:18:43;;;;;;;54.45;7.68;;;19.00;57.60;;;;;;5142841;27;20026;-68
2023/01/03 14:21:14;;;;;;;71.10;9.40;;;19.00;57.30;;;;;;5142829;27;20030;-69